createdAt,value
2018-12-14T00:00:24.188Z,12.87
2018-12-14T00:02:55.279Z,15.30
2018-12-14T00:05:26.289Z,13.77
2018-12-14T00:07:55.262Z,13.33
2018-12-14T00:10:24.281Z,14.33
2018-12-14T00:12:53.265Z,15.27
2018-12-14T00:15:22.256Z,14.67
2018-12-14T00:17:51.287Z,13.73
2018-12-14T00:20:20.278Z,14.33
2018-12-14T00:22:49.252Z,15.93
2018-12-14T00:25:18.237Z,13.83
2018-12-14T00:27:47.209Z,14.20
2018-12-14T00:30:16.234Z,14.23
2018-12-14T00:32:45.213Z,13.20
2018-12-14T00:35:14.517Z,14.00
2018-12-14T00:37:44.493Z,13.33
2018-12-14T00:40:13.494Z,12.93
2018-12-14T00:42:42.496Z,12.87
2018-12-14T00:45:11.487Z,13.93
2018-12-14T00:47:40.479Z,15.13
2018-12-14T00:50:09.548Z,12.87
2018-12-14T00:52:38.516Z,14.03
2018-12-14T00:55:08.013Z,13.70
2018-12-14T00:57:37.031Z,12.80
2018-12-14T01:00:07.625Z,11.70
2018-12-14T01:02:36.597Z,11.73
2018-12-14T01:05:06.089Z,11.93
2018-12-14T01:07:35.104Z,12.93
2018-12-14T01:10:04.119Z,12.23
2018-12-14T01:12:33.100Z,11.40
2018-12-14T01:15:02.150Z,12.07
2018-12-14T01:17:31.129Z,11.30
2018-12-14T01:20:00.138Z,11.27
2018-12-14T01:22:29.124Z,11.40
2018-12-14T01:24:58.106Z,10.50
2018-12-14T01:27:27.082Z,11.83
2018-12-14T01:29:56.061Z,12.57
2018-12-14T01:32:25.186Z,11.17
2018-12-14T01:34:54.168Z,11.03
2018-12-14T01:37:23.174Z,11.57
2018-12-14T01:39:52.185Z,11.30
2018-12-14T01:42:21.161Z,11.80
2018-12-14T01:44:50.238Z,10.50
2018-12-14T01:47:19.205Z,11.77
2018-12-14T01:49:48.201Z,10.37
2018-12-14T01:52:17.186Z,11.83
2018-12-14T01:54:46.154Z,11.30
2018-12-14T01:57:15.282Z,10.67
2018-12-14T01:59:44.269Z,9.90
2018-12-14T02:02:14.144Z,12.40
2018-12-14T02:04:43.190Z,9.83
2018-12-14T02:07:12.181Z,10.20
2018-12-14T02:09:41.190Z,11.30
2018-12-14T02:12:11.496Z,10.37
2018-12-14T02:14:40.642Z,9.20
2018-12-14T02:17:09.621Z,11.53
2018-12-14T02:19:38.622Z,11.13
2018-12-14T02:22:07.637Z,10.40
2018-12-14T02:24:36.619Z,10.40
2018-12-14T02:27:05.625Z,11.03
2018-12-14T02:29:34.618Z,9.97
2018-12-14T02:32:03.915Z,10.80
2018-12-14T02:34:33.141Z,8.70
2018-12-14T02:37:02.145Z,9.20
2018-12-14T02:39:31.134Z,9.43
2018-12-14T02:42:00.150Z,10.50
2018-12-14T02:44:29.142Z,9.60
2018-12-14T02:46:58.163Z,10.33
2018-12-14T02:49:27.232Z,9.60
2018-12-14T02:51:56.202Z,9.10
2018-12-14T02:54:25.174Z,9.13
2018-12-14T02:56:54.235Z,8.43
2018-12-14T02:59:23.238Z,10.43
2018-12-14T03:01:52.214Z,8.93
2018-12-14T03:04:21.198Z,8.20
2018-12-14T03:06:50.181Z,8.47
2018-12-14T03:09:19.160Z,9.03
2018-12-14T03:11:48.199Z,9.70
2018-12-14T03:14:17.414Z,9.67
2018-12-14T03:16:47.005Z,10.13
2018-12-14T03:19:15.975Z,8.50
2018-12-14T03:21:44.953Z,9.50
2018-12-14T03:24:13.964Z,8.93
2018-12-14T03:26:42.984Z,9.03
2018-12-14T03:29:11.974Z,8.60
2018-12-14T03:31:40.953Z,9.07
2018-12-14T03:34:09.927Z,8.50
2018-12-14T03:36:39.143Z,9.37
2018-12-14T03:39:08.144Z,9.53
2018-12-14T03:41:37.299Z,10.47
2018-12-14T03:44:06.301Z,8.90
2018-12-14T03:46:35.759Z,8.80
2018-12-14T03:49:04.794Z,8.73
2018-12-14T03:51:33.769Z,9.00
2018-12-14T03:54:02.754Z,8.27
2018-12-14T03:56:31.740Z,8.47
2018-12-14T03:59:00.725Z,10.17
2018-12-14T04:01:30.378Z,9.40
2018-12-14T04:03:59.344Z,7.83
2018-12-14T04:06:28.351Z,8.73
2018-12-14T04:08:59.310Z,8.87
2018-12-14T04:11:28.318Z,8.67
2018-12-14T04:13:57.335Z,7.80
2018-12-14T04:16:26.307Z,8.37
2018-12-14T04:18:55.299Z,8.73
2018-12-14T04:21:24.287Z,8.53
2018-12-14T04:23:53.284Z,9.43
2018-12-14T04:26:22.307Z,8.13
2018-12-14T04:28:51.299Z,7.40
2018-12-14T04:31:20.291Z,8.47
2018-12-14T04:33:49.349Z,8.33
2018-12-14T04:36:18.335Z,8.07
2018-12-14T04:38:49.338Z,8.00
2018-12-14T04:41:18.329Z,7.70
2018-12-14T04:43:47.385Z,7.10
2018-12-14T04:46:16.470Z,7.33
2018-12-14T04:48:45.508Z,7.50
2018-12-14T04:51:14.529Z,8.60
2018-12-14T04:53:43.497Z,8.10
2018-12-14T04:56:13.484Z,7.30
2018-12-14T04:58:42.561Z,7.37
2018-12-14T05:01:11.542Z,8.20
2018-12-14T05:03:40.581Z,7.73
2018-12-14T05:06:09.598Z,6.90
2018-12-14T05:08:38.572Z,7.93
2018-12-14T05:11:07.586Z,7.50
2018-12-14T05:13:36.602Z,7.57
2018-12-14T05:16:05.717Z,7.07
2018-12-14T05:18:34.718Z,7.47
2018-12-14T05:21:03.721Z,7.20
2018-12-14T05:23:32.707Z,7.77
2018-12-14T05:26:01.690Z,7.03
2018-12-14T05:28:30.698Z,7.60
2018-12-14T05:30:59.674Z,8.67
2018-12-14T05:33:28.714Z,7.03
2018-12-14T05:35:57.765Z,7.13
2018-12-14T05:38:26.873Z,7.17
2018-12-14T05:40:55.881Z,7.53
2018-12-14T05:43:24.868Z,7.53
2018-12-14T05:45:53.858Z,6.80
2018-12-14T05:48:22.856Z,6.07
2018-12-14T05:50:51.842Z,8.67
2018-12-14T05:53:20.926Z,8.00
2018-12-14T05:55:49.939Z,7.07
2018-12-14T05:58:18.922Z,6.53
2018-12-14T06:00:47.922Z,8.97
2018-12-14T06:03:16.955Z,7.47
2018-12-14T06:05:45.962Z,7.30
2018-12-14T06:08:14.969Z,8.33
2018-12-14T06:10:43.962Z,7.37
2018-12-14T06:13:12.950Z,6.43
2018-12-14T06:15:41.956Z,7.37
2018-12-14T06:18:10.972Z,6.97
2018-12-14T06:20:39.968Z,8.10
2018-12-14T06:23:08.993Z,6.43
2018-12-14T06:25:37.984Z,6.33
2018-12-14T06:28:06.959Z,7.20
2018-12-14T06:30:36.070Z,6.93
2018-12-14T06:33:05.110Z,7.90
2018-12-14T06:35:34.093Z,7.43
2018-12-14T06:38:03.074Z,8.87
2018-12-14T06:40:32.081Z,9.40
2018-12-14T06:43:01.088Z,11.03
2018-12-14T06:45:30.088Z,12.53
2018-12-14T06:47:59.073Z,12.87
2018-12-14T06:50:29.696Z,12.67
2018-12-14T06:52:58.997Z,11.50
2018-12-14T06:55:27.990Z,11.37
2018-12-14T06:57:56.992Z,14.90
2018-12-14T07:00:25.975Z,13.63
2018-12-14T07:02:54.948Z,12.23
2018-12-14T07:05:23.935Z,13.80
2018-12-14T07:07:52.965Z,11.67
2018-12-14T07:10:21.949Z,12.57
2018-12-14T07:12:50.940Z,12.00
2018-12-14T07:15:19.921Z,10.93
2018-12-14T07:17:48.970Z,13.63
2018-12-14T07:20:17.990Z,12.60
2018-12-14T07:22:46.959Z,12.23
2018-12-14T07:25:15.929Z,15.63
2018-12-14T07:27:44.968Z,12.07
2018-12-14T07:30:13.940Z,16.17
2018-12-14T07:32:42.948Z,10.10
2018-12-14T07:35:11.924Z,11.73
2018-12-14T07:37:40.915Z,15.07
2018-12-14T07:40:09.888Z,12.37
2018-12-14T07:42:38.864Z,11.20
2018-12-14T07:45:07.894Z,10.87
2018-12-14T07:47:36.929Z,9.43
2018-12-14T07:50:06.712Z,12.70
2018-12-14T07:52:35.685Z,7.83
2018-12-14T07:55:04.693Z,9.70
2018-12-14T07:57:33.701Z,10.97
2018-12-14T08:00:02.678Z,11.90
2018-12-14T08:02:32.087Z,12.23
2018-12-14T08:05:01.114Z,9.23
2018-12-14T08:07:30.081Z,10.77
2018-12-14T08:09:59.190Z,10.20
2018-12-14T08:12:28.148Z,9.97
2018-12-14T08:14:57.385Z,8.93
2018-12-14T08:17:26.356Z,10.97
2018-12-14T08:19:55.330Z,10.57
2018-12-14T08:22:24.322Z,9.37
2018-12-14T08:24:53.352Z,10.53
2018-12-14T08:27:22.292Z,9.70
2018-12-14T08:29:51.926Z,10.13
2018-12-14T08:32:21.085Z,8.73
2018-12-14T08:34:51.197Z,9.73
2018-12-14T08:37:20.353Z,10.40
2018-12-14T08:39:49.416Z,8.90
2018-12-14T08:42:18.388Z,8.43
2018-12-14T08:44:47.365Z,9.70
2018-12-14T08:47:16.347Z,9.93
2018-12-14T08:49:45.362Z,10.03
2018-12-14T08:52:14.336Z,12.17
2018-12-14T08:54:43.317Z,13.80
2018-12-14T08:57:12.296Z,14.23
2018-12-14T08:59:41.316Z,12.67
2018-12-14T09:02:10.356Z,15.67
2018-12-14T09:04:39.337Z,15.13
2018-12-14T09:07:08.322Z,15.97
2018-12-14T09:09:37.321Z,14.53
2018-12-14T09:12:06.293Z,18.17
2018-12-14T09:14:35.354Z,18.40
2018-12-14T09:17:04.404Z,19.47
2018-12-14T09:19:33.488Z,20.03
2018-12-14T09:22:02.473Z,19.60
2018-12-14T09:24:31.464Z,20.07
2018-12-14T09:27:00.534Z,19.93
2018-12-14T09:29:29.540Z,20.23
2018-12-14T09:31:58.645Z,21.07
2018-12-14T09:34:27.629Z,23.83
2018-12-14T09:36:56.632Z,19.83
2018-12-14T09:39:25.609Z,25.23
2018-12-14T09:41:54.617Z,22.17
2018-12-14T09:44:23.624Z,28.23
2018-12-14T09:46:52.617Z,23.97
2018-12-14T09:49:21.613Z,23.33
2018-12-14T09:51:50.581Z,22.20
2018-12-14T09:54:19.612Z,24.33
2018-12-14T09:56:48.588Z,24.47
2018-12-14T09:59:17.579Z,31.03
2018-12-14T10:01:46.578Z,22.70
2018-12-14T10:04:15.596Z,24.40
2018-12-14T10:06:44.629Z,23.73
2018-12-14T10:09:13.609Z,23.20
2018-12-14T10:11:42.650Z,24.60
2018-12-14T10:14:11.628Z,21.70
2018-12-14T10:16:40.617Z,28.40
2018-12-14T10:19:09.681Z,24.33
2018-12-14T10:21:38.667Z,25.33
2018-12-14T10:24:07.654Z,24.03
2018-12-14T10:26:36.620Z,24.97
2018-12-14T10:29:05.593Z,23.67
2018-12-14T10:31:34.596Z,24.93
2018-12-14T10:34:03.660Z,26.07
2018-12-14T10:36:32.798Z,23.47
2018-12-14T10:39:01.799Z,24.97
2018-12-14T10:41:31.965Z,26.33
2018-12-14T10:44:07.277Z,24.33
2018-12-14T10:46:31.948Z,23.70
2018-12-14T10:49:01.160Z,20.70
2018-12-14T10:51:30.360Z,25.33
2018-12-14T10:53:59.524Z,21.73
2018-12-14T10:56:28.563Z,21.23
2018-12-14T10:58:57.565Z,20.50
2018-12-14T11:01:32.082Z,23.33
2018-12-14T11:04:01.229Z,24.10
2018-12-14T11:08:56.289Z,22.27
2018-12-14T11:13:50.817Z,22.87
2018-12-14T11:21:11.852Z,19.83
2018-12-14T11:23:40.885Z,18.77
2018-12-14T11:26:09.969Z,21.57
2018-12-14T11:28:38.956Z,24.67
2018-12-14T11:31:07.976Z,28.40
2018-12-14T11:33:36.984Z,19.43
2018-12-14T11:36:06.070Z,20.57
2018-12-14T11:38:35.117Z,17.93
2018-12-14T11:41:04.129Z,21.60
2018-12-14T11:43:33.137Z,19.97
2018-12-14T11:46:02.131Z,20.07
2018-12-14T11:48:31.155Z,22.47
2018-12-14T11:51:00.147Z,18.07
2018-12-14T11:53:29.171Z,19.57
2018-12-14T11:55:58.213Z,18.67
2018-12-14T11:58:27.261Z,17.10
2018-12-14T12:00:56.247Z,19.43
2018-12-14T12:03:25.614Z,18.17
2018-12-14T12:05:54.597Z,18.33
2018-12-14T12:08:23.565Z,17.60
2018-12-14T12:10:52.537Z,15.43
2018-12-14T12:13:21.532Z,18.10
2018-12-14T12:15:50.509Z,17.67
2018-12-14T12:18:19.523Z,18.30
2018-12-14T12:20:48.524Z,18.13
2018-12-14T12:23:17.492Z,18.60
2018-12-14T12:25:46.525Z,17.70
2018-12-14T12:28:15.516Z,18.13
2018-12-14T12:30:44.493Z,15.13
2018-12-14T12:33:13.464Z,14.87
2018-12-14T12:35:42.485Z,14.40
2018-12-14T12:38:11.549Z,15.27
2018-12-14T12:40:40.544Z,16.70
2018-12-14T12:43:09.526Z,18.53
2018-12-14T12:45:38.501Z,17.57
2018-12-14T12:48:07.481Z,15.57
2018-12-14T12:50:36.502Z,17.30
2018-12-14T12:53:05.497Z,15.93
2018-12-14T12:55:34.518Z,16.43
2018-12-14T12:58:03.640Z,15.13
2018-12-14T13:00:32.636Z,16.30
2018-12-14T13:03:01.642Z,15.67
2018-12-14T13:05:34.853Z,15.17
2018-12-14T13:08:01.650Z,14.43
2018-12-14T13:10:30.642Z,13.20
2018-12-14T13:12:59.641Z,15.60
2018-12-14T13:15:28.677Z,15.00
2018-12-14T13:17:57.669Z,15.10
2018-12-14T13:20:26.639Z,13.93
2018-12-14T13:32:40.705Z,15.97
2018-12-14T13:35:09.770Z,13.87
2018-12-14T13:37:38.764Z,13.43
2018-12-14T13:40:07.744Z,14.93
2018-12-14T13:42:36.793Z,13.33
2018-12-14T13:45:05.848Z,13.93
2018-12-14T13:47:34.877Z,14.73
2018-12-14T13:50:04.374Z,12.93
2018-12-14T13:52:33.465Z,14.20
2018-12-14T13:55:02.441Z,13.90
2018-12-14T13:57:31.419Z,14.37
2018-12-14T14:00:00.696Z,19.83
2018-12-14T14:02:29.677Z,15.00
2018-12-14T14:04:58.700Z,15.10
2018-12-14T14:07:27.673Z,13.70
2018-12-14T14:09:56.649Z,14.37
2018-12-14T14:12:30.813Z,15.63
2018-12-14T14:14:56.843Z,16.27
2018-12-14T14:17:25.914Z,15.67
2018-12-14T14:19:54.926Z,14.60
2018-12-14T14:22:23.906Z,15.73
2018-12-14T14:24:52.905Z,14.67
2018-12-14T14:27:21.884Z,15.27
2018-12-14T14:29:50.869Z,16.13
2018-12-14T14:32:19.876Z,18.63
2018-12-14T14:34:48.908Z,17.40
2018-12-14T14:37:19.601Z,16.83
2018-12-14T14:39:49.753Z,15.67
2018-12-14T14:42:18.718Z,19.50
2018-12-14T14:44:47.721Z,20.07
2018-12-14T14:47:16.725Z,16.87
2018-12-14T14:49:45.770Z,18.60
2018-12-14T14:52:14.757Z,18.73
2018-12-14T14:54:43.772Z,19.57
2018-12-14T14:57:12.737Z,19.07
2018-12-14T14:59:41.730Z,20.47
2018-12-14T15:02:10.767Z,19.10
2018-12-14T15:04:39.749Z,17.40
2018-12-14T15:07:08.750Z,20.87
2018-12-14T15:09:37.766Z,19.83
2018-12-14T15:12:06.746Z,16.53
2018-12-14T15:14:35.829Z,18.53
2018-12-14T15:17:04.820Z,18.83
2018-12-14T15:19:33.839Z,19.17
2018-12-14T15:22:04.653Z,17.00
2018-12-14T15:24:33.834Z,17.53
2018-12-14T15:27:02.873Z,17.63
2018-12-14T15:29:31.863Z,19.53
2018-12-14T15:32:01.254Z,22.47
2018-12-14T15:34:30.251Z,20.20
2018-12-14T15:44:17.308Z,18.03
2018-12-14T15:54:04.579Z,17.37
2018-12-14T15:56:33.566Z,18.50
2018-12-14T15:59:02.790Z,17.20
2018-12-14T16:01:31.786Z,19.00
2018-12-14T16:04:00.803Z,16.90
2018-12-14T16:06:29.820Z,16.10
2018-12-14T16:08:58.816Z,17.37
2018-12-14T16:11:27.811Z,18.50
2018-12-14T16:13:57.022Z,16.27
2018-12-14T16:16:26.004Z,16.63
2018-12-14T16:18:55.021Z,16.90
2018-12-14T16:21:24.109Z,18.00
2018-12-14T16:23:53.156Z,16.80
2018-12-14T16:26:22.257Z,16.30
2018-12-14T16:28:51.261Z,14.97
2018-12-14T16:31:20.241Z,16.13
2018-12-14T16:33:49.257Z,18.93
2018-12-14T16:36:21.589Z,18.93
2018-12-14T16:38:50.625Z,15.47
2018-12-14T16:41:19.614Z,16.87
2018-12-14T16:43:48.592Z,16.53
2018-12-14T16:46:17.573Z,17.57
2018-12-14T16:48:46.626Z,17.53
2018-12-14T16:51:15.809Z,20.43
2018-12-14T16:53:50.053Z,17.03
2018-12-14T16:56:19.808Z,19.53
2018-12-14T16:58:49.556Z,17.70
2018-12-14T17:01:19.346Z,18.87
2018-12-14T17:03:49.068Z,20.50
2018-12-14T17:06:18.757Z,15.63
2018-12-14T17:08:48.446Z,16.20
2018-12-14T17:11:18.051Z,15.73
2018-12-14T17:13:47.637Z,19.73
2018-12-14T17:16:17.355Z,17.33
2018-12-14T17:18:47.064Z,18.73
2018-12-14T17:21:16.809Z,17.77
2018-12-14T17:23:46.553Z,17.43
2018-12-14T17:26:15.578Z,16.93
2018-12-14T17:28:44.557Z,17.23
2018-12-14T17:31:13.576Z,15.03
2018-12-14T17:33:42.579Z,14.17
2018-12-14T17:36:12.801Z,15.40
2018-12-14T17:38:41.825Z,15.53
2018-12-14T17:41:10.794Z,15.90
2018-12-14T17:43:39.785Z,15.40
2018-12-14T17:46:08.766Z,21.63
2018-12-14T17:48:37.780Z,17.97
2018-12-14T17:51:06.760Z,18.70
2018-12-14T17:53:35.730Z,17.23
2018-12-14T17:56:04.854Z,16.00
2018-12-14T17:58:33.834Z,17.00
2018-12-14T18:01:03.076Z,17.30
2018-12-14T18:03:32.057Z,15.40
2018-12-14T18:06:01.024Z,15.20
2018-12-14T18:08:30.009Z,16.70
2018-12-14T18:10:58.981Z,15.53
2018-12-14T18:13:28.021Z,15.23
2018-12-14T18:15:57.008Z,15.87
2018-12-14T18:18:26.581Z,15.60
2018-12-14T18:20:55.588Z,15.93
2018-12-14T18:23:24.589Z,15.43
2018-12-14T18:25:53.590Z,25.00
2018-12-14T18:28:22.569Z,15.37
2018-12-14T18:30:51.576Z,17.57
2018-12-14T18:33:20.553Z,17.77
2018-12-14T18:35:50.316Z,19.97
2018-12-14T18:38:19.345Z,15.37
2018-12-14T18:40:48.316Z,18.53
2018-12-14T18:43:17.313Z,17.70
2018-12-14T18:45:52.994Z,18.67
2018-12-14T18:48:17.272Z,16.77
2018-12-14T18:50:46.281Z,16.47
2018-12-14T18:53:15.377Z,20.37
2018-12-14T18:55:44.412Z,17.57
2018-12-14T18:58:13.412Z,18.50
2018-12-14T19:00:42.406Z,18.23
2018-12-14T19:03:11.419Z,18.60
2018-12-14T19:05:40.484Z,19.80
2018-12-14T19:08:09.467Z,21.07
2018-12-14T19:10:38.445Z,19.20
2018-12-14T19:13:07.498Z,18.50
2018-12-14T19:15:36.513Z,16.20
2018-12-14T19:18:05.512Z,25.47
2018-12-14T19:20:34.501Z,19.33
2018-12-14T19:23:03.552Z,19.17
2018-12-14T19:25:32.535Z,21.67
2018-12-14T19:28:01.614Z,16.70
2018-12-14T19:30:31.473Z,20.00
2018-12-14T19:33:00.482Z,20.13
2018-12-14T19:35:29.541Z,20.57
2018-12-14T19:37:58.578Z,16.57
2018-12-14T19:40:27.594Z,21.87
2018-12-14T19:42:56.597Z,18.40
2018-12-14T19:45:25.597Z,18.87
2018-12-14T19:47:54.603Z,19.73
2018-12-14T19:50:23.601Z,22.00
2018-12-14T19:52:52.741Z,18.03
2018-12-14T19:55:21.789Z,18.77
2018-12-14T19:57:50.851Z,18.60
2018-12-14T20:00:20.169Z,21.90
2018-12-14T20:02:49.176Z,20.33
2018-12-14T20:05:18.558Z,21.57
2018-12-14T20:07:47.549Z,20.97
2018-12-14T20:10:16.733Z,20.73
2018-12-14T20:12:45.746Z,25.17
2018-12-14T20:15:14.748Z,17.60
2018-12-14T20:17:43.794Z,17.07
2018-12-14T20:20:12.877Z,16.83
2018-12-14T20:22:42.972Z,18.40
2018-12-14T20:25:11.977Z,19.23
2018-12-14T20:27:40.986Z,15.63
2018-12-14T20:30:10.538Z,21.20
2018-12-14T20:32:40.071Z,20.93
2018-12-14T20:35:10.161Z,21.23
2018-12-14T20:37:39.396Z,18.00
2018-12-14T20:40:08.451Z,19.10
2018-12-14T20:42:38.497Z,18.23
2018-12-14T20:45:08.153Z,16.80
2018-12-14T20:47:37.167Z,18.27
2018-12-14T20:50:06.959Z,17.93
2018-12-14T20:52:36.865Z,19.03
2018-12-14T20:55:08.892Z,19.10
2018-12-14T20:57:37.872Z,19.33
2018-12-14T21:00:08.988Z,19.40
2018-12-14T21:02:38.009Z,23.50
2018-12-14T21:05:07.001Z,17.43
2018-12-14T21:07:36.105Z,19.73
2018-12-14T21:10:05.621Z,20.03
2018-12-14T21:12:34.701Z,19.10
2018-12-14T21:15:04.073Z,23.47
2018-12-14T21:17:33.091Z,21.17
2018-12-14T21:20:02.110Z,22.87
2018-12-14T21:22:31.120Z,23.03
2018-12-14T21:25:00.304Z,19.53
2018-12-14T21:27:29.432Z,18.73
2018-12-14T21:29:58.398Z,19.23
2018-12-14T21:32:27.420Z,24.33
2018-12-14T21:34:56.414Z,26.67
2018-12-14T21:37:25.437Z,21.87
2018-12-14T21:39:54.473Z,22.50
2018-12-14T21:42:23.505Z,25.57
2018-12-14T21:44:52.517Z,21.67
2018-12-14T21:47:21.537Z,22.33
2018-12-14T21:49:50.588Z,23.53
2018-12-14T21:52:19.704Z,25.43
2018-12-14T21:54:48.682Z,24.10
2018-12-14T21:57:17.706Z,25.17
2018-12-14T21:59:46.738Z,21.43
2018-12-14T22:02:15.763Z,25.60
2018-12-14T22:04:44.745Z,26.50
2018-12-14T22:07:13.811Z,22.07
2018-12-14T22:09:42.901Z,23.00
2018-12-14T22:12:12.052Z,24.63
2018-12-14T22:14:41.061Z,21.17
2018-12-14T22:17:10.145Z,22.53
2018-12-14T22:19:39.195Z,23.30
2018-12-14T22:22:08.197Z,25.23
2018-12-14T22:24:37.170Z,25.43
2018-12-14T22:27:06.173Z,21.80
2018-12-14T22:29:35.187Z,26.33
2018-12-14T22:32:04.199Z,23.17
2018-12-14T22:34:33.187Z,21.60
2018-12-14T22:37:02.180Z,22.27
2018-12-14T22:39:31.588Z,22.97
2018-12-14T22:42:00.585Z,22.20
2018-12-14T22:44:29.957Z,23.53
2018-12-14T22:46:58.968Z,23.40
2018-12-14T22:49:27.941Z,27.53
2018-12-14T22:51:56.913Z,21.53
2018-12-14T22:54:25.913Z,24.57
2018-12-14T22:56:54.922Z,25.37
2018-12-14T22:59:23.909Z,21.90
2018-12-14T23:01:52.892Z,22.30
2018-12-14T23:04:21.945Z,22.30
2018-12-14T23:06:50.941Z,21.63
2018-12-14T23:09:19.938Z,22.13
2018-12-14T23:11:48.917Z,22.20
2018-12-14T23:14:17.889Z,21.20
2018-12-14T23:16:52.234Z,23.57
2018-12-14T23:19:17.820Z,23.47
2018-12-14T23:21:46.862Z,24.30
2018-12-14T23:24:15.822Z,24.57
2018-12-14T23:26:46.044Z,22.43
2018-12-14T23:29:17.521Z,20.67
2018-12-14T23:31:46.497Z,22.63
2018-12-14T23:34:16.556Z,22.67
2018-12-14T23:36:45.531Z,19.97
2018-12-14T23:39:14.542Z,21.53
2018-12-14T23:41:44.095Z,22.63
2018-12-14T23:44:14.106Z,20.93
2018-12-14T23:46:43.085Z,20.87
2018-12-14T23:49:14.958Z,20.57
2018-12-14T23:51:45.757Z,20.63
2018-12-14T23:54:14.761Z,22.23
2018-12-14T23:56:46.224Z,22.30
2018-12-14T23:59:16.101Z,20.40
